Nearby METAR Reports

 

KISP - Islip, New York, USA
Distance from station: SW 4mi, 6km
Updated: Tue, 11/29/2022 2:56 am EST
Clear
Clear
 Wind from NNW
Wind: NNW 5 mph , 7 km/h
Temperature: 36°F , 2°C
Wind Chill: 32°F , 0°C
Dew Point: 28°F , -2°C
Humidity: 75%
Barometer: 30.14 inHg , 1020.7 hPa
Clouds: Clear
Visibility: 10 miles , 16 km
2022/11/29 07:56 KISP 290756Z AUTO 33004KT 10SM CLR 02/M02 A3014 RMK AO2 SLP205 T00171022
KHWV - Shirley, New York, USA
Distance from station: E 10mi, 16km
Updated: Tue, 11/29/2022 2:56 am EST
Clear
Clear
 Wind from N
Wind: N 3 mph , 6 km/h
Temperature: 36°F , 2°C
Dew Point: 27°F , -3°C
Humidity: 70%
Barometer: 30.14 inHg , 1020.7 hPa
Clouds: Clear
Visibility: 10 miles , 16 km
2022/11/29 07:56 KHWV 290756Z AUTO 35003KT 10SM CLR 02/M03 A3014 RMK AO2 SLP206 T00221028
 
KFRG - Farmingdale, New York, USA
Distance from station: WSW 20mi, 33km
Updated: Tue, 11/29/2022 2:53 am EST
Clear
Clear
 Wind from calm
Wind: Calm
Temperature: 34°F , 1°C
Dew Point: 28°F , -2°C
Humidity: 81%
Barometer: 30.15 inHg , 1021 hPa
Clouds: Clear
Visibility: 10 miles , 16 km
2022/11/29 07:53 KFRG 290753Z AUTO 00000KT 10SM CLR 01/M02 A3015 RMK AO2 SLP210 T00111022
KBDR - Bridgeport, Connecticut, USA
Distance from station: N 23mi, 37km
Updated: Tue, 11/29/2022 2:52 am EST
Clear
Clear
 Wind from calm
Wind: Calm
Temperature: 34°F , 1°C
Dew Point: 27°F , -3°C
Humidity: 75%
Barometer: 30.15 inHg , 1021 hPa
Clouds: Clear
Visibility: 10 miles , 16 km
2022/11/29 07:52 KBDR 290752Z AUTO 00000KT 10SM CLR 01/M03 A3015 RMK AO2 SLP208 T00111028
 
KFOK - Westhampton Beac, New York, USA
Distance from station: E 23mi, 37km
Updated: Tue, 11/29/2022 2:53 am EST
Clear
Clear
 Wind from NNW
Wind: NNW 8 mph , 13 km/h
Temperature: 30°F , -1°C
Wind Chill: 22°F , -6°C
Dew Point: 27°F , -3°C
Humidity: 86%
Barometer: 30.14 inHg , 1020.7 hPa
Clouds: Clear
Visibility: 10 miles , 16 km
2022/11/29 07:53 KFOK 290753Z AUTO 33007KT 10SM CLR M01/M03 A3014 RMK AO2 SLP208 T10111033
KHVN - New Haven/Tweed, Connecticut, USA
Distance from station: NNE 31mi, 50km
Updated: Tue, 11/29/2022 2:53 am EST
Clear
Clear
 Wind from NNW
Wind: NNW 7 mph , 11 km/h
Temperature: 37°F , 3°C
Wind Chill: 32°F , 0°C
Dew Point: 28°F , -2°C
Humidity: 70%
Barometer: 30.13 inHg , 1020.3 hPa
Clouds: Clear
Visibility: 10 miles , 16 km
2022/11/29 07:53 KHVN 290753Z 34006KT 10SM CLR 03/M02 A3013 RMK AO2 SLP203 T00331022
 
KHPN - White Plains, New York, USA
Distance from station: WNW 37mi, 60km
Updated: Tue, 11/29/2022 2:56 am EST
Clear
Clear
 Wind from NW
Wind: NW 5 mph , 7 km/h
Temperature: 30°F , -1°C
Wind Chill: 25°F , -4°C
Dew Point: 25°F , -4°C
Humidity: 80%
Barometer: 30.13 inHg , 1020.3 hPa
Clouds: Clear
Visibility: 10 miles , 16 km
2022/11/29 07:56 KHPN 290756Z 32004KT 10SM CLR M01/M04 A3013 RMK AO2 SLP210 T10061039
KJFK - Nyc/Jfk Arpt, New York, USA
Distance from station: WSW 40mi, 64km
Updated: Tue, 11/29/2022 2:51 am EST
Clear
Clear
 Wind from NW
Wind: NW 5 mph , 7 km/h
Temperature: 39°F , 4°C
Wind Chill: 35°F , 2°C
Dew Point: 28°F , -2°C
Humidity: 65%
Barometer: 30.17 inHg , 1021.7 hPa
Clouds: Clear
Visibility: 10 miles , 16 km
2022/11/29 07:51 KJFK 290751Z 32004KT 10SM CLR 04/M02 A3017 RMK AO2 SLP215 T00391022
 
KDXR - Danbury, Connecticut, USA
Distance from station: NNW 42mi, 68km
Updated: Tue, 11/29/2022 2:53 am EST
Clear
Clear
 Wind from calm
Wind: Calm
Temperature: 28°F , -2°C
Dew Point: 21°F , -6°C
Humidity: 74%
Barometer: 30.14 inHg , 1020.7 hPa
Clouds: Clear
Visibility: 10 miles , 16 km
2022/11/29 07:53 KDXR 290753Z AUTO 00000KT 10SM CLR M02/M06 A3014 RMK AO2 SLP208 I1000 T10221056
KHTO - East Hampton, New York, USA
Distance from station: E 43mi, 69km
Updated: Sat, 05/21/2022 1:35 pm EDT
NOT Current
Clear
Clear
 Wind from WNW
Wind: WNW 5 mph , 7 km/h
Temperature: 81°F , 27°C
Heat Index: 83°F , 28°C
Dew Point: 66°F , 19°C
Humidity: 62%
Barometer: 30.00 inHg , 1015.9 hPa
Clouds: Clear
Visibility: 10 miles , 16 km
2022/05/21 17:35 KHTO 211735Z AUTO 30004KT 10SM CLR 27/19 A3000 RMK AO2 T02670193
 
KOXC - Oxford/Waterbury, Connecticut, USA
Distance from station: N 43mi, 70km
Updated: Tue, 11/29/2022 2:51 am EST
Clear
Clear
 Wind from N
Wind: N 7 mph , 11 km/h
Temperature: 30°F , -1°C
Wind Chill: 23°F , -5°C
Dew Point: 25°F , -4°C
Humidity: 80%
Barometer: 30.12 inHg , 1020 hPa
Clouds: Clear
Visibility: 10 miles , 16 km
2022/11/29 07:51 KOXC 290751Z AUTO 01006KT 10SM CLR M01/M04 A3012 RMK AO2 SLP217 T10111039 FZRANO
KLGA - Nyc/La Guardia, New York, USA
Distance from station: W 44mi, 70km
Updated: Tue, 11/29/2022 2:51 am EST
Clear
Clear
 Wind from NNW
Wind: NNW 7 mph , 11 km/h
Temperature: 41°F , 5°C
Wind Chill: 36°F , 2°C
Dew Point: 28°F , -2°C
Humidity: 61%
Barometer: 30.15 inHg , 1021 hPa
Clouds: Clear
Visibility: 10 miles , 16 km
2022/11/29 07:51 KLGA 290751Z 34006KT 10SM CLR 05/M02 A3015 RMK AO2 SLP210 T00501022
 
KSNC - Chester, Connecticut, USA
Distance from station: NE 47mi, 76km
Updated: Tue, 11/29/2022 3:15 am EST
Clear
Clear
 Wind from WNW
Wind: WNW 7 mph , 11 km/h
Barometer: 30.13 inHg , 1020.3 hPa
Clouds: Clear
Visibility: 10 miles , 16 km
2022/11/29 08:15 KSNC 290815Z AUTO 30006KT 10SM CLR A3013 RMK AO2
KMMK - Meriden, Connecticut, USA
Distance from station: NNE 48mi, 77km
Updated: Tue, 11/29/2022 2:53 am EST
Clear
Clear
 Wind from W
Wind: W 5 mph , 7 km/h
Temperature: 30°F , -1°C
Wind Chill: 25°F , -4°C
Dew Point: 25°F , -4°C
Humidity: 80%
Barometer: 30.14 inHg , 1020.7 hPa
Clouds: Clear
Visibility: 10 miles , 16 km
2022/11/29 07:53 KMMK 290753Z AUTO 27004KT 10SM CLR M01/M04 A3014 RMK AO2 SLP206 T10061039
 
KNYC - Nyc/Central Park, New York, USA
Distance from station: W 48mi, 77km
Updated: Tue, 11/29/2022 2:51 am EST
Clear
Clear
 Wind from NW
Wind: NW 5 mph , 7 km/h
Temperature: 39°F , 4°C
Wind Chill: 35°F , 2°C
Dew Point: 28°F , -2°C
Humidity: 65%
Barometer: 30.17 inHg , 1021.7 hPa
Clouds: Clear
Visibility: 10 miles , 16 km
2022/11/29 07:51 KNYC 290751Z AUTO 32004KT 10SM CLR 04/M02 A3017 RMK AO2 SLP210 T00391022 $